createdAt,value
2023-05-17T00:02:20.002Z,65.20
2023-05-17T00:04:46.935Z,65.15
2023-05-17T00:07:13.845Z,64.89
2023-05-17T00:09:40.803Z,66.02
2023-05-17T00:12:07.842Z,65.76
2023-05-17T00:14:34.379Z,65.55
2023-05-17T00:17:01.153Z,65.80
2023-05-17T00:19:29.380Z,65.71
2023-05-17T00:21:56.148Z,66.32
2023-05-17T00:24:22.599Z,65.26
2023-05-17T00:26:49.379Z,66.11
2023-05-17T00:29:15.839Z,66.80
2023-05-17T00:31:42.642Z,66.94
2023-05-17T00:34:09.131Z,67.52
2023-05-17T00:36:36.704Z,68.13
2023-05-17T00:39:03.240Z,68.60
2023-05-17T00:41:29.977Z,69.04
2023-05-17T00:43:57.313Z,68.99
2023-05-17T00:46:24.287Z,70.08
2023-05-17T00:48:51.138Z,69.80
2023-05-17T00:51:19.773Z,70.01
2023-05-17T00:53:46.504Z,70.86
2023-05-17T00:56:13.219Z,70.70
2023-05-17T00:58:40.571Z,71.95
2023-05-17T01:01:07.586Z,72.30
2023-05-17T01:03:34.418Z,72.66
2023-05-17T01:06:01.188Z,73.28
2023-05-17T01:08:27.644Z,73.46
2023-05-17T01:11:10.979Z,73.89
2023-05-17T01:13:46.973Z,74.35
2023-05-17T01:16:21.182Z,74.86
2023-05-17T01:19:08.186Z,74.82
2023-05-17T01:22:08.303Z,74.96
2023-05-17T01:25:17.457Z,75.69
2023-05-17T01:27:47.879Z,75.77
2023-05-17T01:30:16.048Z,75.74
2023-05-17T01:32:43.594Z,76.56
2023-05-17T01:35:13.210Z,76.47
2023-05-17T01:37:40.086Z,77.16
2023-05-17T01:40:08.628Z,77.31
2023-05-17T01:42:39.059Z,77.54
2023-05-17T01:45:17.988Z,77.66
2023-05-17T01:48:34.216Z,77.75
2023-05-17T01:51:02.753Z,77.94
2023-05-17T01:53:36.687Z,77.89
2023-05-17T01:56:19.840Z,78.41
2023-05-17T01:58:48.360Z,78.20
2023-05-17T02:01:17.891Z,78.48
2023-05-17T02:03:48.776Z,78.76
2023-05-17T02:06:18.440Z,78.98
2023-05-17T02:08:44.922Z,78.30
2023-05-17T02:11:11.599Z,78.86
2023-05-17T02:13:38.140Z,78.93
2023-05-17T02:16:07.056Z,78.74
2023-05-17T02:18:33.674Z,78.93
2023-05-17T02:21:00.240Z,79.23
2023-05-17T02:23:27.230Z,79.46
2023-05-17T02:25:54.064Z,79.59
2023-05-17T02:28:20.825Z,79.58
2023-05-17T02:30:47.568Z,80.17
2023-05-17T02:33:14.080Z,80.04
2023-05-17T02:35:40.649Z,80.08
2023-05-17T02:38:07.187Z,80.39
2023-05-17T02:40:34.015Z,80.33
2023-05-17T02:43:00.553Z,80.18
2023-05-17T02:45:27.466Z,80.32
2023-05-17T02:47:54.292Z,80.52
2023-05-17T02:50:21.088Z,80.60
2023-05-17T02:52:48.126Z,80.88
2023-05-17T02:55:15.226Z,80.74
2023-05-17T02:57:41.735Z,80.95
2023-05-17T03:00:11.361Z,80.15
2023-05-17T03:02:37.982Z,80.07
2023-05-17T03:05:04.762Z,80.50
2023-05-17T03:07:31.775Z,79.97
2023-05-17T03:09:58.307Z,80.18
2023-05-17T03:12:24.925Z,79.74
2023-05-17T03:14:51.488Z,79.61
2023-05-17T03:17:17.940Z,80.15
2023-05-17T03:19:45.008Z,79.23
2023-05-17T03:22:11.482Z,78.76
2023-05-17T03:24:37.910Z,78.50
2023-05-17T03:27:04.637Z,79.07
2023-05-17T03:29:31.345Z,79.82
2023-05-17T03:31:57.813Z,79.07
2023-05-17T03:34:24.345Z,79.14
2023-05-17T03:36:51.110Z,78.93
2023-05-17T03:39:17.573Z,78.93
2023-05-17T03:41:44.156Z,78.96
2023-05-17T03:44:10.687Z,79.27
2023-05-17T03:46:37.399Z,79.39
2023-05-17T03:49:03.946Z,79.26
2023-05-17T03:51:30.532Z,79.44
2023-05-17T03:53:59.213Z,79.39
2023-05-17T03:56:26.124Z,79.51
2023-05-17T03:58:52.588Z,79.17
2023-05-17T04:01:19.306Z,79.14
2023-05-17T04:03:47.530Z,78.30
2023-05-17T04:06:14.646Z,79.34
2023-05-17T04:08:41.572Z,79.04
2023-05-17T04:11:08.114Z,78.49
2023-05-17T04:13:35.049Z,78.79
2023-05-17T04:16:01.832Z,78.76
2023-05-17T04:18:28.378Z,78.42
2023-05-17T04:20:55.413Z,78.24
2023-05-17T04:23:22.153Z,78.54
2023-05-17T04:25:48.583Z,77.92
2023-05-17T04:28:15.054Z,78.56
2023-05-17T04:30:46.493Z,78.60
2023-05-17T04:33:14.445Z,78.78
2023-05-17T04:35:42.717Z,79.19
2023-05-17T04:38:09.252Z,79.14
2023-05-17T04:40:37.104Z,79.17
2023-05-17T04:43:03.986Z,79.09
2023-05-17T04:45:30.623Z,79.04
2023-05-17T04:47:57.466Z,79.12
2023-05-17T04:50:24.256Z,79.01
2023-05-17T04:52:51.046Z,79.29
2023-05-17T04:55:17.513Z,79.18
2023-05-17T04:57:44.767Z,78.11
2023-05-17T05:00:11.570Z,77.69
2023-05-17T05:02:38.381Z,77.92
2023-05-17T05:05:05.693Z,77.85
2023-05-17T05:07:32.518Z,77.81
2023-05-17T05:09:59.134Z,77.49
2023-05-17T05:12:29.193Z,77.88
2023-05-17T05:14:55.977Z,77.49
2023-05-17T05:17:23.605Z,78.20
2023-05-17T05:19:50.386Z,77.16
2023-05-17T05:22:17.959Z,75.83
2023-05-17T05:24:44.494Z,74.91
2023-05-17T05:27:11.040Z,75.35
2023-05-17T05:29:37.610Z,76.28
2023-05-17T05:32:04.354Z,75.44
2023-05-17T05:34:33.556Z,74.96
2023-05-17T05:37:00.366Z,75.03
2023-05-17T05:39:27.249Z,73.13
2023-05-17T05:41:55.886Z,72.86
2023-05-17T05:44:23.956Z,72.49
2023-05-17T05:46:52.369Z,73.01
2023-05-17T05:49:19.462Z,71.70
2023-05-17T05:51:46.052Z,72.54
2023-05-17T05:54:13.670Z,72.49
2023-05-17T05:56:40.425Z,70.39
2023-05-17T05:59:07.003Z,70.11
2023-05-17T06:01:33.666Z,69.26
2023-05-17T06:04:01.244Z,69.52
2023-05-17T06:06:28.030Z,68.11
2023-05-17T06:08:58.194Z,68.83
2023-05-17T06:11:26.192Z,65.66
2023-05-17T06:13:53.056Z,66.53
2023-05-17T06:16:22.254Z,66.63
2023-05-17T06:18:51.286Z,65.66
2023-05-17T06:21:18.613Z,66.90
2023-05-17T06:23:45.598Z,67.51
2023-05-17T06:26:12.517Z,67.16
2023-05-17T06:28:39.399Z,67.39
2023-05-17T06:31:06.408Z,66.26
2023-05-17T06:33:35.045Z,66.44
2023-05-17T06:38:30.078Z,64.38
2023-05-17T06:40:57.020Z,64.42
2023-05-17T06:43:23.963Z,63.24
2023-05-17T06:45:50.843Z,63.20
2023-05-17T06:48:18.712Z,62.70
2023-05-17T06:50:46.651Z,63.35
2023-05-17T06:53:13.269Z,62.72
2023-05-17T06:55:40.369Z,62.23
2023-05-17T06:58:08.067Z,63.87
2023-05-17T07:00:34.931Z,62.75
2023-05-17T07:03:01.856Z,63.30
2023-05-17T07:05:28.966Z,62.43
2023-05-17T07:07:58.254Z,62.49
2023-05-17T07:10:24.815Z,61.60
2023-05-17T07:12:53.133Z,61.20
2023-05-17T07:15:19.773Z,60.20
2023-05-17T07:17:46.390Z,58.10
2023-05-17T07:20:16.535Z,59.87
2023-05-17T07:22:43.522Z,59.69
2023-05-17T07:25:14.006Z,59.95
2023-05-17T07:27:40.607Z,58.06
2023-05-17T07:30:07.735Z,59.53
2023-05-17T07:32:34.198Z,57.76
2023-05-17T07:35:01.060Z,56.47
2023-05-17T07:37:27.778Z,57.70
2023-05-17T07:40:01.766Z,56.17
2023-05-17T07:42:28.481Z,58.34
2023-05-17T07:44:56.995Z,59.06
2023-05-17T07:47:24.126Z,55.64
2023-05-17T07:49:53.103Z,54.93
2023-05-17T07:52:19.721Z,55.38
2023-05-17T07:54:46.222Z,54.46
2023-05-17T07:57:13.077Z,55.12
2023-05-17T07:59:39.677Z,53.45
2023-05-17T08:02:06.744Z,53.39
2023-05-17T08:04:33.433Z,52.52
2023-05-17T08:07:00.020Z,52.52
2023-05-17T08:09:26.654Z,51.47
2023-05-17T08:11:54.254Z,51.01
2023-05-17T08:14:23.550Z,53.11
2023-05-17T08:16:50.400Z,51.56
2023-05-17T08:19:18.858Z,52.20
2023-05-17T08:21:45.913Z,51.80
2023-05-17T08:24:13.152Z,52.02
2023-05-17T08:26:40.968Z,51.07
2023-05-17T08:29:09.010Z,52.04
2023-05-17T08:31:35.584Z,51.66
2023-05-17T08:34:02.289Z,50.91
2023-05-17T08:36:28.944Z,51.53
2023-05-17T08:38:56.044Z,49.52
2023-05-17T08:41:22.902Z,47.74
2023-05-17T08:43:50.476Z,47.45
2023-05-17T08:46:19.621Z,46.99
2023-05-17T08:48:49.765Z,46.01
2023-05-17T08:51:18.029Z,46.53
2023-05-17T08:53:44.765Z,48.53
2023-05-17T08:56:12.248Z,45.88
2023-05-17T08:58:55.352Z,46.32
2023-05-17T09:01:28.394Z,46.57
2023-05-17T09:03:56.187Z,45.87
2023-05-17T09:06:24.226Z,47.31
2023-05-17T09:08:51.827Z,47.22
2023-05-17T09:11:29.382Z,46.36
2023-05-17T09:14:04.620Z,43.56
2023-05-17T09:16:32.884Z,46.34
2023-05-17T09:19:00.642Z,42.33
2023-05-17T09:21:28.255Z,43.03
2023-05-17T09:24:05.428Z,42.50
2023-05-17T09:26:43.827Z,44.19
2023-05-17T09:29:15.700Z,43.44
2023-05-17T09:31:43.353Z,43.29
2023-05-17T09:34:10.755Z,42.67
2023-05-17T09:36:39.377Z,42.97
2023-05-17T09:39:08.132Z,43.73
2023-05-17T09:41:48.372Z,41.96
2023-05-17T09:44:15.951Z,41.62
2023-05-17T09:46:45.591Z,41.18
2023-05-17T09:49:13.563Z,41.69
2023-05-17T09:51:42.416Z,41.01
2023-05-17T09:54:10.294Z,39.28
2023-05-17T09:56:37.033Z,41.24
2023-05-17T09:59:12.421Z,39.03
2023-05-17T10:01:41.174Z,41.25
2023-05-17T10:04:09.984Z,41.32
2023-05-17T10:06:47.530Z,40.09
2023-05-17T10:09:18.069Z,39.39
2023-05-17T10:11:46.977Z,38.30
2023-05-17T10:14:16.721Z,39.11
2023-05-17T10:16:43.515Z,37.96
2023-05-17T10:19:11.713Z,38.78
2023-05-17T10:21:39.567Z,38.87
2023-05-17T10:24:06.946Z,38.32
2023-05-17T10:26:34.290Z,38.32
2023-05-17T10:29:02.156Z,38.88
2023-05-17T10:31:34.125Z,39.10
2023-05-17T10:34:03.128Z,38.67
2023-05-17T10:36:30.922Z,36.79
2023-05-17T10:38:59.656Z,37.80
2023-05-17T10:41:33.280Z,36.57
2023-05-17T10:44:03.250Z,38.67
2023-05-17T10:46:31.166Z,38.02
2023-05-17T10:48:58.934Z,39.08
2023-05-17T10:51:33.637Z,37.79
2023-05-17T10:54:11.179Z,38.30
2023-05-17T10:57:06.482Z,36.12
2023-05-17T10:59:35.468Z,36.96
2023-05-17T11:02:10.177Z,36.50
2023-05-17T11:04:41.435Z,35.88
2023-05-17T11:07:17.479Z,34.76
2023-05-17T11:09:45.574Z,35.99
2023-05-17T11:12:13.461Z,34.52
2023-05-17T11:14:46.337Z,35.54
2023-05-17T11:17:16.945Z,35.00
2023-05-17T11:19:55.824Z,36.09
2023-05-17T11:22:26.349Z,35.81
2023-05-17T11:24:56.863Z,35.79
2023-05-17T11:27:24.351Z,34.39
2023-05-17T11:29:51.267Z,35.45
2023-05-17T11:32:17.784Z,37.00
2023-05-17T11:34:44.726Z,33.98
2023-05-17T11:37:11.304Z,35.41
2023-05-17T11:39:37.824Z,33.76
2023-05-17T11:42:05.006Z,34.32
2023-05-17T11:44:35.638Z,33.78
2023-05-17T11:47:05.796Z,34.64
2023-05-17T11:49:36.147Z,34.23
2023-05-17T11:52:03.465Z,36.28
2023-05-17T11:54:31.293Z,34.81
2023-05-17T11:57:00.507Z,34.08
2023-05-17T11:59:27.349Z,34.42
2023-05-17T12:01:53.981Z,36.03
2023-05-17T12:04:25.689Z,34.58
2023-05-17T12:06:57.090Z,34.12
2023-05-17T12:09:23.822Z,33.38
2023-05-17T12:11:50.452Z,33.13
2023-05-17T12:14:21.183Z,35.39
2023-05-17T12:16:52.233Z,33.43
2023-05-17T12:19:20.736Z,33.13
2023-05-17T12:21:48.029Z,32.94
2023-05-17T12:24:15.365Z,32.33
2023-05-17T12:26:48.575Z,33.42
2023-05-17T12:29:19.222Z,33.08
2023-05-17T12:31:50.042Z,32.92
2023-05-17T12:34:19.817Z,33.55
2023-05-17T12:36:46.823Z,34.00
2023-05-17T12:39:14.349Z,34.15
2023-05-17T12:41:42.066Z,32.02
2023-05-17T12:44:15.162Z,31.81
2023-05-17T12:46:43.615Z,32.92
2023-05-17T12:49:11.940Z,32.13
2023-05-17T12:51:42.215Z,31.81
2023-05-17T12:54:08.969Z,31.50
2023-05-17T12:56:35.396Z,31.19
2023-05-17T12:59:25.264Z,31.53
2023-05-17T13:01:54.485Z,31.13
2023-05-17T13:04:28.390Z,31.66
2023-05-17T13:07:00.657Z,31.33
2023-05-17T13:09:29.325Z,31.92
2023-05-17T13:11:58.049Z,32.90
2023-05-17T13:14:46.127Z,31.50
2023-05-17T13:17:19.020Z,32.08
2023-05-17T13:19:45.662Z,30.64
2023-05-17T13:22:12.327Z,31.74
2023-05-17T13:24:40.747Z,31.53
2023-05-17T13:27:07.821Z,32.77
2023-05-17T13:29:40.692Z,33.29
2023-05-17T13:32:09.223Z,33.08
2023-05-17T13:34:36.402Z,33.42
2023-05-17T13:37:07.858Z,32.57
2023-05-17T13:39:36.191Z,33.46
2023-05-17T13:42:02.693Z,34.04
2023-05-17T13:44:29.542Z,31.33
2023-05-17T13:46:56.199Z,32.72
2023-05-17T13:49:22.682Z,31.61
2023-05-17T13:51:49.173Z,32.90
2023-05-17T13:54:16.852Z,31.94
2023-05-17T13:56:43.631Z,31.78
2023-05-17T13:59:10.527Z,32.40
2023-05-17T14:01:40.223Z,32.15
2023-05-17T14:04:06.792Z,32.51
2023-05-17T14:06:33.624Z,32.97
2023-05-17T14:09:00.239Z,32.15
2023-05-17T14:11:26.686Z,32.37
2023-05-17T14:13:53.148Z,32.79
2023-05-17T14:16:19.699Z,31.98
2023-05-17T14:18:47.815Z,33.12
2023-05-17T14:21:15.144Z,32.88
2023-05-17T14:23:41.740Z,33.45
2023-05-17T14:26:08.519Z,33.02
2023-05-17T14:28:35.510Z,32.03
2023-05-17T14:31:02.003Z,32.93
2023-05-17T14:33:28.967Z,32.44
2023-05-17T14:35:56.873Z,34.02
2023-05-17T14:38:23.376Z,33.72
2023-05-17T14:40:49.929Z,32.46
2023-05-17T14:43:16.472Z,32.94
2023-05-17T14:45:43.088Z,31.01
2023-05-17T14:48:09.968Z,31.24
2023-05-17T14:50:36.488Z,31.81
2023-05-17T14:53:03.248Z,33.33
2023-05-17T14:55:30.316Z,33.39
2023-05-17T14:57:57.285Z,33.60
2023-05-17T15:00:24.133Z,33.40
2023-05-17T15:02:51.108Z,33.93
2023-05-17T15:05:17.890Z,35.22
2023-05-17T15:07:44.547Z,35.36
2023-05-17T15:10:11.283Z,35.46
2023-05-17T15:12:37.810Z,35.65
2023-05-17T15:15:05.252Z,34.50
2023-05-17T15:17:32.033Z,34.22
2023-05-17T15:19:58.632Z,34.93
2023-05-17T15:22:27.259Z,34.96
2023-05-17T15:24:56.392Z,34.48
2023-05-17T15:27:23.419Z,35.21
2023-05-17T15:29:49.815Z,35.97
2023-05-17T15:32:16.366Z,35.19
2023-05-17T15:34:43.099Z,34.87
2023-05-17T15:37:09.603Z,36.16
2023-05-17T15:39:36.193Z,35.90
2023-05-17T15:42:03.091Z,36.83
2023-05-17T15:44:29.468Z,36.52
2023-05-17T15:46:55.953Z,36.80
2023-05-17T15:49:23.866Z,35.90
2023-05-17T15:51:50.397Z,36.34
2023-05-17T15:54:16.918Z,35.21
2023-05-17T15:56:43.701Z,36.80
2023-05-17T15:59:10.204Z,36.43
2023-05-17T16:01:36.727Z,37.02
2023-05-17T16:04:03.272Z,37.26
2023-05-17T16:06:30.037Z,37.67
2023-05-17T16:08:56.529Z,36.96
2023-05-17T16:11:22.970Z,37.44
2023-05-17T16:13:50.700Z,37.21
2023-05-17T16:16:18.212Z,36.77
2023-05-17T16:18:45.643Z,37.60
2023-05-17T16:21:14.589Z,37.42
2023-05-17T16:23:41.224Z,37.23
2023-05-17T16:26:08.010Z,37.30
2023-05-17T16:28:34.810Z,37.80
2023-05-17T16:31:01.661Z,37.22
2023-05-17T16:33:28.624Z,37.67
2023-05-17T16:35:55.071Z,37.32
2023-05-17T16:38:21.611Z,37.44
2023-05-17T16:40:48.246Z,37.64
2023-05-17T16:43:14.826Z,38.01
2023-05-17T16:45:45.841Z,38.06
2023-05-17T16:48:13.837Z,37.05
2023-05-17T16:50:42.044Z,37.48
2023-05-17T16:53:08.808Z,36.53
2023-05-17T16:55:35.832Z,37.07
2023-05-17T16:58:02.853Z,38.19
2023-05-17T17:00:29.696Z,37.11
2023-05-17T17:02:59.577Z,37.48
2023-05-17T17:05:28.097Z,37.41
2023-05-17T17:07:54.976Z,38.91
2023-05-17T17:10:21.739Z,38.35
2023-05-17T17:12:49.293Z,39.30
2023-05-17T17:15:16.029Z,40.06
2023-05-17T17:17:42.628Z,38.90
2023-05-17T17:20:09.694Z,38.60
2023-05-17T17:22:37.024Z,39.00
2023-05-17T17:25:03.603Z,40.19
2023-05-17T17:27:30.361Z,40.27
2023-05-17T17:29:56.947Z,40.12
2023-05-17T17:32:23.672Z,40.60
2023-05-17T17:34:50.255Z,41.40
2023-05-17T17:37:16.720Z,41.29
2023-05-17T17:39:43.248Z,41.99
2023-05-17T17:42:10.457Z,42.89
2023-05-17T17:44:36.953Z,42.71
2023-05-17T17:47:03.531Z,41.00
2023-05-17T17:49:30.075Z,41.95
2023-05-17T17:51:56.504Z,42.24
2023-05-17T17:54:22.926Z,41.90
2023-05-17T17:56:49.364Z,41.62
2023-05-17T17:59:15.844Z,41.76
2023-05-17T18:01:43.325Z,41.99
2023-05-17T18:04:10.038Z,43.17
2023-05-17T18:06:36.941Z,42.16
2023-05-17T18:09:03.679Z,42.53
2023-05-17T18:11:30.093Z,42.53
2023-05-17T18:13:56.573Z,43.25
2023-05-17T18:16:23.119Z,43.42
2023-05-17T18:18:50.183Z,42.63
2023-05-17T18:21:16.722Z,42.63
2023-05-17T18:23:44.338Z,43.16
2023-05-17T18:26:12.360Z,42.95
2023-05-17T18:28:42.355Z,43.93
2023-05-17T18:31:09.628Z,43.07
2023-05-17T18:33:36.448Z,43.73
2023-05-17T18:36:03.044Z,43.87
2023-05-17T18:38:29.460Z,44.93
2023-05-17T18:40:55.882Z,44.18
2023-05-17T18:43:22.431Z,44.27
2023-05-17T18:45:48.985Z,44.97
2023-05-17T18:48:15.461Z,45.00
2023-05-17T18:50:41.970Z,45.40
2023-05-17T18:53:08.562Z,45.64
2023-05-17T18:55:37.559Z,45.19
2023-05-17T18:58:04.249Z,45.77
2023-05-17T19:00:31.744Z,46.03
2023-05-17T19:02:58.366Z,46.36
2023-05-17T19:05:24.833Z,46.92
2023-05-17T19:07:52.332Z,46.59
2023-05-17T19:10:18.869Z,47.21
2023-05-17T19:12:45.762Z,47.52
2023-05-17T19:15:12.318Z,48.47
2023-05-17T19:17:38.838Z,47.98
2023-05-17T19:20:06.047Z,48.50
2023-05-17T19:22:32.640Z,47.99
2023-05-17T19:24:59.075Z,48.41
2023-05-17T19:27:25.499Z,49.11
2023-05-17T19:29:51.922Z,48.96
2023-05-17T19:32:18.460Z,49.19
2023-05-17T19:34:44.957Z,48.47
2023-05-17T19:37:11.450Z,49.50
2023-05-17T19:39:38.390Z,49.52
2023-05-17T19:42:05.114Z,49.93
2023-05-17T19:44:31.993Z,49.68
2023-05-17T19:46:58.478Z,49.53
2023-05-17T19:49:24.919Z,50.44
2023-05-17T19:51:51.566Z,50.18
2023-05-17T19:54:17.996Z,50.67
2023-05-17T19:56:44.870Z,50.36
2023-05-17T19:59:11.324Z,51.08
2023-05-17T20:01:37.835Z,51.32
2023-05-17T20:04:04.739Z,50.58
2023-05-17T20:06:31.538Z,52.05
2023-05-17T20:08:58.250Z,51.75
2023-05-17T20:11:24.976Z,53.16
2023-05-17T20:13:51.461Z,53.35
2023-05-17T20:16:18.025Z,53.99
2023-05-17T20:18:45.076Z,54.35
2023-05-17T20:21:13.772Z,54.74
2023-05-17T20:23:40.612Z,54.83
2023-05-17T20:26:07.223Z,55.46
2023-05-17T20:28:34.811Z,56.11
2023-05-17T20:31:01.342Z,55.92
2023-05-17T20:33:30.806Z,57.00
2023-05-17T20:35:58.521Z,56.98
2023-05-17T20:38:25.218Z,57.04
2023-05-17T20:40:51.877Z,57.51
2023-05-17T20:43:18.535Z,56.80
2023-05-17T20:45:46.362Z,56.80
2023-05-17T20:48:13.137Z,57.79
2023-05-17T20:50:42.336Z,58.94
2023-05-17T20:53:09.090Z,58.74
2023-05-17T20:55:36.314Z,58.89
2023-05-17T20:58:03.018Z,58.71
2023-05-17T21:00:29.634Z,59.71
2023-05-17T21:02:56.660Z,59.35
2023-05-17T21:05:23.486Z,58.96
2023-05-17T21:07:50.319Z,59.91
2023-05-17T21:10:17.616Z,60.02
2023-05-17T21:12:44.415Z,60.58
2023-05-17T21:15:30.702Z,59.59
2023-05-17T21:17:57.798Z,60.81
2023-05-17T21:20:24.929Z,61.03
2023-05-17T21:22:51.565Z,60.92
2023-05-17T21:25:18.602Z,61.01
2023-05-17T21:27:45.025Z,61.27
2023-05-17T21:30:11.786Z,61.17
2023-05-17T21:32:38.271Z,61.28
2023-05-17T21:35:05.259Z,61.78
2023-05-17T21:37:31.779Z,60.99
2023-05-17T21:39:58.641Z,62.07
2023-05-17T21:42:25.489Z,62.19
2023-05-17T21:44:53.544Z,62.77
2023-05-17T21:47:20.396Z,62.23
2023-05-17T21:49:47.490Z,61.44
2023-05-17T21:52:13.948Z,62.25
2023-05-17T21:54:40.716Z,62.26
2023-05-17T21:57:08.264Z,62.20
2023-05-17T21:59:37.684Z,62.26
2023-05-17T22:02:04.391Z,62.31
2023-05-17T22:04:30.971Z,62.22
2023-05-17T22:06:57.980Z,62.85
2023-05-17T22:09:24.491Z,62.73
2023-05-17T22:11:51.122Z,62.33
2023-05-17T22:14:18.199Z,62.92
2023-05-17T22:16:45.921Z,63.40
2023-05-17T22:19:12.437Z,63.50
2023-05-17T22:21:39.263Z,64.80
2023-05-17T22:24:09.287Z,65.09
2023-05-17T22:26:35.908Z,64.88
2023-05-17T22:29:03.355Z,66.17
2023-05-17T22:31:32.184Z,65.90
2023-05-17T22:34:00.124Z,66.04
2023-05-17T22:36:26.847Z,66.68
2023-05-17T22:38:53.729Z,66.23
2023-05-17T22:41:20.540Z,66.50
2023-05-17T22:43:47.176Z,66.81
2023-05-17T22:46:14.035Z,66.88
2023-05-17T22:48:41.714Z,66.61
2023-05-17T22:51:08.320Z,66.63
2023-05-17T22:53:36.305Z,66.87
2023-05-17T22:56:02.800Z,67.06
2023-05-17T22:58:30.988Z,66.67
2023-05-17T23:00:58.019Z,67.28
2023-05-17T23:03:24.893Z,67.03
2023-05-17T23:05:51.524Z,67.32
2023-05-17T23:08:18.107Z,67.19
2023-05-17T23:10:45.027Z,67.34
2023-05-17T23:13:12.696Z,68.26
2023-05-17T23:15:40.257Z,67.15
2023-05-17T23:18:07.260Z,67.48
2023-05-17T23:20:41.899Z,67.22
2023-05-17T23:23:09.117Z,66.68
2023-05-17T23:25:35.754Z,67.25
2023-05-17T23:28:02.334Z,67.25
2023-05-17T23:30:28.989Z,68.69
2023-05-17T23:32:56.821Z,67.74
2023-05-17T23:35:23.789Z,67.44
2023-05-17T23:37:50.819Z,68.23
2023-05-17T23:40:17.738Z,67.69
2023-05-17T23:42:44.526Z,68.08
2023-05-17T23:45:11.868Z,68.08
2023-05-17T23:47:38.624Z,68.42
2023-05-17T23:50:05.967Z,68.57
2023-05-17T23:52:32.983Z,68.83
2023-05-17T23:54:59.755Z,68.05
2023-05-17T23:57:26.475Z,67.55
2023-05-17T23:59:54.375Z,68.31
